sensor_id;sensor_type;location;lat;lon;timestamp;pressure;altitude;pressure_sealevel;temperature
47484;BMP280;54076;50.322;18.650;2024-01-15T00:01:21;97060.63;;;3.49
47484;BMP280;54076;50.322;18.650;2024-01-15T00:06:23;97044.09;;;3.48
47484;BMP280;54076;50.322;18.650;2024-01-15T00:11:24;97045.05;;;3.43
47484;BMP280;54076;50.322;18.650;2024-01-15T00:16:25;97035.82;;;3.38
47484;BMP280;54076;50.322;18.650;2024-01-15T00:21:26;97033.66;;;3.44
47484;BMP280;54076;50.322;18.650;2024-01-15T00:26:28;97021.23;;;3.48
47484;BMP280;54076;50.322;18.650;2024-01-15T00:31:30;97011.83;;;3.44
47484;BMP280;54076;50.322;18.650;2024-01-15T00:36:31;97004.94;;;3.45
47484;BMP280;54076;50.322;18.650;2024-01-15T00:41:32;96994.66;;;3.61
47484;BMP280;54076;50.322;18.650;2024-01-15T00:46:33;96998.94;;;3.45
47484;BMP280;54076;50.322;18.650;2024-01-15T00:51:34;96990.90;;;3.51
47484;BMP280;54076;50.322;18.650;2024-01-15T00:56:35;96988.59;;;3.48
47484;BMP280;54076;50.322;18.650;2024-01-15T01:01:36;96979.13;;;3.54
47484;BMP280;54076;50.322;18.650;2024-01-15T01:06:38;96967.23;;;3.69
47484;BMP280;54076;50.322;18.650;2024-01-15T01:11:39;96955.84;;;3.58
47484;BMP280;54076;50.322;18.650;2024-01-15T01:16:40;96959.48;;;3.56
47484;BMP280;54076;50.322;18.650;2024-01-15T01:21:41;96951.23;;;3.58
47484;BMP280;54076;50.322;18.650;2024-01-15T01:26:42;96942.95;;;3.51
47484;BMP280;54076;50.322;18.650;2024-01-15T01:31:44;96935.22;;;3.65
47484;BMP280;54076;50.322;18.650;2024-01-15T01:36:45;96926.06;;;3.61
47484;BMP280;54076;50.322;18.650;2024-01-15T01:41:46;96919.41;;;3.68
47484;BMP280;54076;50.322;18.650;2024-01-15T01:46:47;96914.70;;;3.52
47484;BMP280;54076;50.322;18.650;2024-01-15T01:51:49;96906.99;;;3.56
47484;BMP280;54076;50.322;18.650;2024-01-15T01:56:50;96888.14;;;3.55
47484;BMP280;54076;50.322;18.650;2024-01-15T02:01:54;96890.05;;;3.59
47484;BMP280;54076;50.322;18.650;2024-01-15T02:06:55;96895.95;;;3.68
47484;BMP280;54076;50.322;18.650;2024-01-15T02:11:56;96891.61;;;3.52
47484;BMP280;54076;50.322;18.650;2024-01-15T02:16:57;96878.88;;;3.44
47484;BMP280;54076;50.322;18.650;2024-01-15T02:21:58;96867.74;;;3.44
47484;BMP280;54076;50.322;18.650;2024-01-15T02:26:59;96877.11;;;3.41
47484;BMP280;54076;50.322;18.650;2024-01-15T02:32:05;96858.45;;;3.49
47484;BMP280;54076;50.322;18.650;2024-01-15T02:37:06;96861.23;;;3.43
47484;BMP280;54076;50.322;18.650;2024-01-15T02:42:07;96854.52;;;3.47
47484;BMP280;54076;50.322;18.650;2024-01-15T02:47:08;96844.64;;;3.47
47484;BMP280;54076;50.322;18.650;2024-01-15T02:52:09;96840.74;;;3.41
47484;BMP280;54076;50.322;18.650;2024-01-15T02:57:10;96834.52;;;3.42
47484;BMP280;54076;50.322;18.650;2024-01-15T03:02:11;96832.73;;;3.44
47484;BMP280;54076;50.322;18.650;2024-01-15T03:07:12;96821.73;;;3.60
47484;BMP280;54076;50.322;18.650;2024-01-15T03:12:13;96815.52;;;3.45
47484;BMP280;54076;50.322;18.650;2024-01-15T03:17:14;96797.60;;;3.43
47484;BMP280;54076;50.322;18.650;2024-01-15T03:22:16;96785.01;;;3.48
47484;BMP280;54076;50.322;18.650;2024-01-15T03:27:17;96785.98;;;3.37
47484;BMP280;54076;50.322;18.650;2024-01-15T03:32:18;96782.02;;;3.38
47484;BMP280;54076;50.322;18.650;2024-01-15T03:37:20;96779.98;;;3.30
47484;BMP280;54076;50.322;18.650;2024-01-15T03:42:21;96775.14;;;3.28
47484;BMP280;54076;50.322;18.650;2024-01-15T03:47:22;96765.58;;;3.37
47484;BMP280;54076;50.322;18.650;2024-01-15T03:52:23;96763.20;;;3.35
47484;BMP280;54076;50.322;18.650;2024-01-15T03:57:24;96758.58;;;3.35
47484;BMP280;54076;50.322;18.650;2024-01-15T04:02:25;96755.02;;;3.42
47484;BMP280;54076;50.322;18.650;2024-01-15T04:07:26;96743.44;;;3.26
47484;BMP280;54076;50.322;18.650;2024-01-15T04:12:27;96741.95;;;3.36
47484;BMP280;54076;50.322;18.650;2024-01-15T04:17:28;96748.59;;;3.27
47484;BMP280;54076;50.322;18.650;2024-01-15T04:22:29;96724.14;;;3.36
47484;BMP280;54076;50.322;18.650;2024-01-15T04:27:30;96724.01;;;3.23
47484;BMP280;54076;50.322;18.650;2024-01-15T04:32:31;96715.45;;;3.28
47484;BMP280;54076;50.322;18.650;2024-01-15T04:37:32;96716.05;;;3.21
47484;BMP280;54076;50.322;18.650;2024-01-15T04:42:33;96729.52;;;3.17
47484;BMP280;54076;50.322;18.650;2024-01-15T04:47:34;96721.95;;;3.23
47484;BMP280;54076;50.322;18.650;2024-01-15T04:52:37;96725.88;;;3.22
47484;BMP280;54076;50.322;18.650;2024-01-15T04:57:38;96728.82;;;3.15
47484;BMP280;54076;50.322;18.650;2024-01-15T05:02:39;96720.25;;;3.10
47484;BMP280;54076;50.322;18.650;2024-01-15T05:07:40;96727.34;;;3.05
47484;BMP280;54076;50.322;18.650;2024-01-15T05:12:41;96725.80;;;3.04
47484;BMP280;54076;50.322;18.650;2024-01-15T05:17:42;96719.40;;;3.09
47484;BMP280;54076;50.322;18.650;2024-01-15T05:22:43;96707.73;;;3.03
47484;BMP280;54076;50.322;18.650;2024-01-15T05:27:44;96710.04;;;2.99
47484;BMP280;54076;50.322;18.650;2024-01-15T05:32:45;96709.37;;;3.01
47484;BMP280;54076;50.322;18.650;2024-01-15T05:37:46;96708.02;;;3.03
47484;BMP280;54076;50.322;18.650;2024-01-15T05:42:47;96711.27;;;3.11
47484;BMP280;54076;50.322;18.650;2024-01-15T05:47:48;96705.85;;;2.96
47484;BMP280;54076;50.322;18.650;2024-01-15T05:52:49;96718.90;;;3.05
47484;BMP280;54076;50.322;18.650;2024-01-15T05:57:50;96702.77;;;3.07
47484;BMP280;54076;50.322;18.650;2024-01-15T06:02:51;96707.36;;;3.06
47484;BMP280;54076;50.322;18.650;2024-01-15T06:07:52;96705.71;;;3.11
47484;BMP280;54076;50.322;18.650;2024-01-15T06:12:53;96707.73;;;3.04
47484;BMP280;54076;50.322;18.650;2024-01-15T06:17:54;96711.80;;;3.01
47484;BMP280;54076;50.322;18.650;2024-01-15T06:22:55;96708.17;;;3.02
47484;BMP280;54076;50.322;18.650;2024-01-15T06:27:56;96708.06;;;3.03
47484;BMP280;54076;50.322;18.650;2024-01-15T06:32:57;96718.63;;;3.08
47484;BMP280;54076;50.322;18.650;2024-01-15T06:37:57;96714.78;;;3.07
47484;BMP280;54076;50.322;18.650;2024-01-15T06:42:58;96721.06;;;3.12
47484;BMP280;54076;50.322;18.650;2024-01-15T06:47:59;96733.11;;;3.25
47484;BMP280;54076;50.322;18.650;2024-01-15T06:53:00;96742.55;;;3.09
47484;BMP280;54076;50.322;18.650;2024-01-15T06:58:01;96736.64;;;3.20
47484;BMP280;54076;50.322;18.650;2024-01-15T07:03:03;96742.29;;;3.21
47484;BMP280;54076;50.322;18.650;2024-01-15T07:08:30;96756.93;;;3.11
47484;BMP280;54076;50.322;18.650;2024-01-15T07:13:31;96762.16;;;3.02
47484;BMP280;54076;50.322;18.650;2024-01-15T07:18:33;96776.29;;;3.23
47484;BMP280;54076;50.322;18.650;2024-01-15T07:23:34;96779.30;;;3.10
47484;BMP280;54076;50.322;18.650;2024-01-15T07:28:35;96773.02;;;3.17
47484;BMP280;54076;50.322;18.650;2024-01-15T07:33:35;96776.41;;;3.28
47484;BMP280;54076;50.322;18.650;2024-01-15T07:38:37;96780.59;;;3.26
47484;BMP280;54076;50.322;18.650;2024-01-15T07:43:38;96783.38;;;3.35
47484;BMP280;54076;50.322;18.650;2024-01-15T07:48:39;96798.19;;;3.28
47484;BMP280;54076;50.322;18.650;2024-01-15T07:53:40;96797.70;;;3.25
47484;BMP280;54076;50.322;18.650;2024-01-15T07:58:42;96800.23;;;3.26
47484;BMP280;54076;50.322;18.650;2024-01-15T08:03:43;96805.05;;;3.10
47484;BMP280;54076;50.322;18.650;2024-01-15T08:08:44;96794.84;;;3.24
47484;BMP280;54076;50.322;18.650;2024-01-15T08:13:45;96798.59;;;3.17
47484;BMP280;54076;50.322;18.650;2024-01-15T08:18:47;96799.48;;;3.02
47484;BMP280;54076;50.322;18.650;2024-01-15T08:23:48;96802.06;;;3.34
47484;BMP280;54076;50.322;18.650;2024-01-15T08:28:49;96808.41;;;3.27
47484;BMP280;54076;50.322;18.650;2024-01-15T08:33:53;96811.55;;;3.58
47484;BMP280;54076;50.322;18.650;2024-01-15T08:38:54;96808.55;;;3.56
47484;BMP280;54076;50.322;18.650;2024-01-15T08:43:55;96800.80;;;3.59
47484;BMP280;54076;50.322;18.650;2024-01-15T08:48:56;96800.86;;;3.56
47484;BMP280;54076;50.322;18.650;2024-01-15T08:53:57;96805.81;;;3.72
47484;BMP280;54076;50.322;18.650;2024-01-15T08:58:59;96799.58;;;3.97
47484;BMP280;54076;50.322;18.650;2024-01-15T09:04:00;96802.05;;;4.12
47484;BMP280;54076;50.322;18.650;2024-01-15T09:09:01;96806.79;;;4.05
47484;BMP280;54076;50.322;18.650;2024-01-15T09:14:01;96804.98;;;4.06
47484;BMP280;54076;50.322;18.650;2024-01-15T09:19:03;96810.13;;;4.50
47484;BMP280;54076;50.322;18.650;2024-01-15T09:24:05;96826.02;;;4.39
47484;BMP280;54076;50.322;18.650;2024-01-15T09:29:06;96820.76;;;4.55
47484;BMP280;54076;50.322;18.650;2024-01-15T09:34:07;96818.98;;;4.44
47484;BMP280;54076;50.322;18.650;2024-01-15T09:39:09;96825.74;;;5.33
47484;BMP280;54076;50.322;18.650;2024-01-15T09:44:12;96835.70;;;5.19
47484;BMP280;54076;50.322;18.650;2024-01-15T09:49:13;96825.77;;;4.80
47484;BMP280;54076;50.322;18.650;2024-01-15T09:54:15;96825.27;;;4.84
47484;BMP280;54076;50.322;18.650;2024-01-15T09:59:18;96818.88;;;4.97
47484;BMP280;54076;50.322;18.650;2024-01-15T10:04:19;96827.02;;;4.93
47484;BMP280;54076;50.322;18.650;2024-01-15T10:09:20;96818.77;;;4.89
47484;BMP280;54076;50.322;18.650;2024-01-15T10:14:21;96824.29;;;4.80
47484;BMP280;54076;50.322;18.650;2024-01-15T10:19:23;96814.60;;;4.84
47484;BMP280;54076;50.322;18.650;2024-01-15T10:24:24;96821.28;;;4.96
47484;BMP280;54076;50.322;18.650;2024-01-15T10:29:25;96822.73;;;4.49
47484;BMP280;54076;50.322;18.650;2024-01-15T10:34:26;96811.75;;;4.69
47484;BMP280;54076;50.322;18.650;2024-01-15T10:39:27;96819.23;;;4.25
47484;BMP280;54076;50.322;18.650;2024-01-15T10:44:29;96815.70;;;4.25
47484;BMP280;54076;50.322;18.650;2024-01-15T10:49:30;96816.96;;;4.35
47484;BMP280;54076;50.322;18.650;2024-01-15T10:54:32;96802.27;;;4.29
47484;BMP280;54076;50.322;18.650;2024-01-15T10:59:33;96798.31;;;4.51
47484;BMP280;54076;50.322;18.650;2024-01-15T11:04:34;96798.58;;;4.31
47484;BMP280;54076;50.322;18.650;2024-01-15T11:09:36;96805.38;;;4.25
47484;BMP280;54076;50.322;18.650;2024-01-15T11:14:45;96809.92;;;4.38
47484;BMP280;54076;50.322;18.650;2024-01-15T11:19:48;96803.98;;;4.09
47484;BMP280;54076;50.322;18.650;2024-01-15T11:24:52;96794.27;;;3.90
47484;BMP280;54076;50.322;18.650;2024-01-15T11:30:04;96797.78;;;3.94
47484;BMP280;54076;50.322;18.650;2024-01-15T11:35:05;96792.67;;;3.93
47484;BMP280;54076;50.322;18.650;2024-01-15T11:40:09;96786.55;;;3.93
47484;BMP280;54076;50.322;18.650;2024-01-15T11:45:16;96789.63;;;3.84
47484;BMP280;54076;50.322;18.650;2024-01-15T11:50:21;96797.30;;;3.76
47484;BMP280;54076;50.322;18.650;2024-01-15T11:55:27;96795.13;;;3.68
47484;BMP280;54076;50.322;18.650;2024-01-15T12:00:31;96792.77;;;3.64
47484;BMP280;54076;50.322;18.650;2024-01-15T12:05:32;96794.11;;;3.67
47484;BMP280;54076;50.322;18.650;2024-01-15T12:10:33;96782.27;;;3.85
47484;BMP280;54076;50.322;18.650;2024-01-15T12:15:34;96786.08;;;3.95
47484;BMP280;54076;50.322;18.650;2024-01-15T12:20:35;96801.77;;;3.68
47484;BMP280;54076;50.322;18.650;2024-01-15T12:25:37;96793.37;;;3.78
47484;BMP280;54076;50.322;18.650;2024-01-15T12:30:39;96798.00;;;3.80
47484;BMP280;54076;50.322;18.650;2024-01-15T12:35:40;96798.95;;;3.82
47484;BMP280;54076;50.322;18.650;2024-01-15T12:40:43;96796.75;;;3.63
47484;BMP280;54076;50.322;18.650;2024-01-15T12:45:47;96789.52;;;3.69
47484;BMP280;54076;50.322;18.650;2024-01-15T12:50:48;96780.17;;;3.72
47484;BMP280;54076;50.322;18.650;2024-01-15T12:55:49;96786.94;;;3.54
47484;BMP280;54076;50.322;18.650;2024-01-15T13:00:50;96775.64;;;3.67
47484;BMP280;54076;50.322;18.650;2024-01-15T13:05:51;96773.79;;;3.68
47484;BMP280;54076;50.322;18.650;2024-01-15T13:10:53;96786.76;;;3.65
47484;BMP280;54076;50.322;18.650;2024-01-15T13:15:57;96768.58;;;3.87
47484;BMP280;54076;50.322;18.650;2024-01-15T13:20:58;96767.36;;;3.54
47484;BMP280;54076;50.322;18.650;2024-01-15T13:25:59;96766.27;;;3.58
47484;BMP280;54076;50.322;18.650;2024-01-15T13:31:00;96752.69;;;3.56
47484;BMP280;54076;50.322;18.650;2024-01-15T13:36:02;96758.52;;;3.60
47484;BMP280;54076;50.322;18.650;2024-01-15T13:41:04;96760.73;;;3.52
47484;BMP280;54076;50.322;18.650;2024-01-15T13:46:06;96760.20;;;3.44
47484;BMP280;54076;50.322;18.650;2024-01-15T13:51:07;96767.31;;;3.54
47484;BMP280;54076;50.322;18.650;2024-01-15T13:56:08;96764.45;;;3.39
47484;BMP280;54076;50.322;18.650;2024-01-15T14:01:11;96762.48;;;3.32
47484;BMP280;54076;50.322;18.650;2024-01-15T14:06:12;96759.55;;;3.33
47484;BMP280;54076;50.322;18.650;2024-01-15T14:11:13;96762.77;;;3.30
47484;BMP280;54076;50.322;18.650;2024-01-15T14:16:14;96760.24;;;3.44
47484;BMP280;54076;50.322;18.650;2024-01-15T14:21:15;96764.17;;;3.50
47484;BMP280;54076;50.322;18.650;2024-01-15T14:26:16;96758.71;;;3.45
47484;BMP280;54076;50.322;18.650;2024-01-15T14:31:17;96770.52;;;3.29
47484;BMP280;54076;50.322;18.650;2024-01-15T14:36:18;96771.50;;;3.26
47484;BMP280;54076;50.322;18.650;2024-01-15T14:41:19;96785.17;;;3.27
47484;BMP280;54076;50.322;18.650;2024-01-15T14:46:20;96776.98;;;3.26
47484;BMP280;54076;50.322;18.650;2024-01-15T14:51:21;96782.42;;;3.27
47484;BMP280;54076;50.322;18.650;2024-01-15T14:56:22;96785.71;;;3.30
47484;BMP280;54076;50.322;18.650;2024-01-15T15:01:23;96795.90;;;3.30
47484;BMP280;54076;50.322;18.650;2024-01-15T15:06:24;96801.44;;;3.30
47484;BMP280;54076;50.322;18.650;2024-01-15T15:11:28;96803.67;;;3.24
47484;BMP280;54076;50.322;18.650;2024-01-15T16:12:59;96814.88;;;3.31
47484;BMP280;54076;50.322;18.650;2024-01-15T16:18:00;96820.02;;;3.25
47484;BMP280;54076;50.322;18.650;2024-01-15T16:23:04;96823.28;;;3.36
47484;BMP280;54076;50.322;18.650;2024-01-15T16:28:05;96825.02;;;3.31
47484;BMP280;54076;50.322;18.650;2024-01-15T16:33:06;96834.36;;;3.33
47484;BMP280;54076;50.322;18.650;2024-01-15T16:38:07;96823.12;;;3.37
47484;BMP280;54076;50.322;18.650;2024-01-15T16:43:08;96828.74;;;3.35
47484;BMP280;54076;50.322;18.650;2024-01-15T16:48:09;96827.00;;;3.52
47484;BMP280;54076;50.322;18.650;2024-01-15T16:53:10;96834.72;;;3.48
47484;BMP280;54076;50.322;18.650;2024-01-15T16:58:11;96835.14;;;3.37
47484;BMP280;54076;50.322;18.650;2024-01-15T17:03:15;96850.64;;;3.36
47484;BMP280;54076;50.322;18.650;2024-01-15T17:08:16;96849.40;;;3.34
47484;BMP280;54076;50.322;18.650;2024-01-15T17:13:18;96841.23;;;3.36
47484;BMP280;54076;50.322;18.650;2024-01-15T17:18:19;96845.92;;;3.31
47484;BMP280;54076;50.322;18.650;2024-01-15T17:23:20;96845.41;;;3.26
47484;BMP280;54076;50.322;18.650;2024-01-15T17:28:21;96848.38;;;3.24
47484;BMP280;54076;50.322;18.650;2024-01-15T17:33:23;96852.58;;;3.31
47484;BMP280;54076;50.322;18.650;2024-01-15T17:38:24;96867.98;;;3.26
47484;BMP280;54076;50.322;18.650;2024-01-15T17:43:25;96871.61;;;3.38
47484;BMP280;54076;50.322;18.650;2024-01-15T17:48:26;96863.55;;;2.99
47484;BMP280;54076;50.322;18.650;2024-01-15T17:53:28;96865.16;;;3.17
47484;BMP280;54076;50.322;18.650;2024-01-15T17:58:29;96865.81;;;3.11
47484;BMP280;54076;50.322;18.650;2024-01-15T18:03:31;96875.28;;;3.20
47484;BMP280;54076;50.322;18.650;2024-01-15T18:08:32;96866.25;;;3.28
47484;BMP280;54076;50.322;18.650;2024-01-15T18:13:33;96864.38;;;3.16
47484;BMP280;54076;50.322;18.650;2024-01-15T18:18:34;96868.21;;;3.20
47484;BMP280;54076;50.322;18.650;2024-01-15T18:23:36;96871.69;;;3.27
47484;BMP280;54076;50.322;18.650;2024-01-15T18:28:37;96874.23;;;3.10
47484;BMP280;54076;50.322;18.650;2024-01-15T18:33:38;96874.73;;;3.11
47484;BMP280;54076;50.322;18.650;2024-01-15T18:38:39;96884.33;;;3.13
47484;BMP280;54076;50.322;18.650;2024-01-15T18:43:40;96886.45;;;3.25
47484;BMP280;54076;50.322;18.650;2024-01-15T18:48:43;96892.80;;;3.19
47484;BMP280;54076;50.322;18.650;2024-01-15T18:53:44;96891.90;;;3.09
47484;BMP280;54076;50.322;18.650;2024-01-15T18:58:45;96889.27;;;3.17
47484;BMP280;54076;50.322;18.650;2024-01-15T19:03:46;96891.83;;;3.23
47484;BMP280;54076;50.322;18.650;2024-01-15T19:08:47;96896.18;;;3.30
47484;BMP280;54076;50.322;18.650;2024-01-15T19:13:48;96900.91;;;3.38
47484;BMP280;54076;50.322;18.650;2024-01-15T19:18:51;96900.73;;;3.23
47484;BMP280;54076;50.322;18.650;2024-01-15T19:23:53;96905.06;;;3.22
47484;BMP280;54076;50.322;18.650;2024-01-15T19:28:55;96910.77;;;3.28
47484;BMP280;54076;50.322;18.650;2024-01-15T19:33:56;96915.79;;;3.24
47484;BMP280;54076;50.322;18.650;2024-01-15T19:38:57;96914.92;;;3.10
47484;BMP280;54076;50.322;18.650;2024-01-15T19:43:58;96917.79;;;3.14
47484;BMP280;54076;50.322;18.650;2024-01-15T19:48:59;96924.34;;;3.05
47484;BMP280;54076;50.322;18.650;2024-01-15T19:54:01;96931.63;;;2.93
47484;BMP280;54076;50.322;18.650;2024-01-15T19:59:02;96931.18;;;3.12
47484;BMP280;54076;50.322;18.650;2024-01-15T20:04:03;96931.65;;;3.08
47484;BMP280;54076;50.322;18.650;2024-01-15T20:09:04;96939.73;;;3.28
47484;BMP280;54076;50.322;18.650;2024-01-15T20:14:05;96948.84;;;3.07
47484;BMP280;54076;50.322;18.650;2024-01-15T20:19:08;96948.86;;;3.01
47484;BMP280;54076;50.322;18.650;2024-01-15T20:24:09;96955.75;;;3.12
47484;BMP280;54076;50.322;18.650;2024-01-15T20:29:10;96957.45;;;3.01
47484;BMP280;54076;50.322;18.650;2024-01-15T20:34:11;96963.30;;;3.00
47484;BMP280;54076;50.322;18.650;2024-01-15T20:39:13;96966.12;;;3.09
47484;BMP280;54076;50.322;18.650;2024-01-15T20:44:14;96974.00;;;3.24
47484;BMP280;54076;50.322;18.650;2024-01-15T20:49:16;96977.05;;;3.20
47484;BMP280;54076;50.322;18.650;2024-01-15T20:54:16;96984.48;;;3.29
47484;BMP280;54076;50.322;18.650;2024-01-15T20:59:17;96986.11;;;3.32
47484;BMP280;54076;50.322;18.650;2024-01-15T21:04:18;96988.40;;;3.38
47484;BMP280;54076;50.322;18.650;2024-01-15T21:09:19;96990.05;;;3.39
47484;BMP280;54076;50.322;18.650;2024-01-15T21:14:20;96993.31;;;3.50
47484;BMP280;54076;50.322;18.650;2024-01-15T21:19:21;97000.27;;;3.49
47484;BMP280;54076;50.322;18.650;2024-01-15T21:24:23;97009.33;;;3.49
47484;BMP280;54076;50.322;18.650;2024-01-15T21:29:28;97012.54;;;3.33
47484;BMP280;54076;50.322;18.650;2024-01-15T21:34:29;97013.53;;;3.32
47484;BMP280;54076;50.322;18.650;2024-01-15T21:39:30;97022.66;;;3.23
47484;BMP280;54076;50.322;18.650;2024-01-15T21:44:31;97017.50;;;3.19
47484;BMP280;54076;50.322;18.650;2024-01-15T21:49:41;97028.90;;;3.21
47484;BMP280;54076;50.322;18.650;2024-01-15T21:54:42;97042.89;;;3.12
47484;BMP280;54076;50.322;18.650;2024-01-15T21:59:43;97053.83;;;3.14
47484;BMP280;54076;50.322;18.650;2024-01-15T22:04:45;97052.73;;;3.12
47484;BMP280;54076;50.322;18.650;2024-01-15T22:09:46;97061.02;;;3.14
47484;BMP280;54076;50.322;18.650;2024-01-15T22:14:47;97064.73;;;3.23
47484;BMP280;54076;50.322;18.650;2024-01-15T22:19:48;97069.01;;;3.09
47484;BMP280;54076;50.322;18.650;2024-01-15T22:24:49;97074.51;;;2.99
47484;BMP280;54076;50.322;18.650;2024-01-15T22:29:50;97080.64;;;2.93
47484;BMP280;54076;50.322;18.650;2024-01-15T22:34:52;97082.74;;;3.05
47484;BMP280;54076;50.322;18.650;2024-01-15T22:39:53;97087.70;;;3.12
47484;BMP280;54076;50.322;18.650;2024-01-15T22:44:54;97083.36;;;2.97
47484;BMP280;54076;50.322;18.650;2024-01-15T22:49:55;97091.99;;;3.15
47484;BMP280;54076;50.322;18.650;2024-01-15T22:54:56;97097.27;;;3.16
47484;BMP280;54076;50.322;18.650;2024-01-15T22:59:57;97098.73;;;3.28
47484;BMP280;54076;50.322;18.650;2024-01-15T23:04:58;97103.30;;;3.25
47484;BMP280;54076;50.322;18.650;2024-01-15T23:09:59;97105.14;;;3.33
47484;BMP280;54076;50.322;18.650;2024-01-15T23:15:00;97110.90;;;3.47
47484;BMP280;54076;50.322;18.650;2024-01-15T23:20:01;97112.95;;;3.43
47484;BMP280;54076;50.322;18.650;2024-01-15T23:25:02;97122.40;;;3.43
47484;BMP280;54076;50.322;18.650;2024-01-15T23:30:04;97121.70;;;3.41
47484;BMP280;54076;50.322;18.650;2024-01-15T23:35:05;97139.36;;;3.46
47484;BMP280;54076;50.322;18.650;2024-01-15T23:40:07;97138.66;;;3.41
47484;BMP280;54076;50.322;18.650;2024-01-15T23:45:09;97133.02;;;3.42
47484;BMP280;54076;50.322;18.650;2024-01-15T23:50:10;97138.09;;;3.49
47484;BMP280;54076;50.322;18.650;2024-01-15T23:55:11;97145.85;;;3.60
